Time;durP1;ratioP1;P1;durP2;ratioP2;P2;SDS_P1;SDS_P2;PMS_P1;PMS_P2;Temp;Humidity;BMP_temperature;BMP_pressure;BME280_temperature;BME280_humidity;BME280_pressure;Samples;Min_cycle;Max_cycle;Signal;HPM_P1;HPM_P2
2022/11/19 00:00:45;;;;;;;0.00;0.00;;;;;;;5.97;65.52;100738.38;7354379;19;20011;-55
2022/11/19 00:03:14;;;;;;;0.10;0.10;;;;;;;5.95;65.93;100735.81;7359383;19;20027;-56
2022/11/19 00:05:41;;;;;;;0.10;0.10;;;;;;;5.91;65.76;100744.47;7364608;19;20105;-57
2022/11/19 00:08:07;;;;;;;0.10;0.10;;;;;;;5.90;66.04;100740.13;7364661;19;20014;-57
2022/11/19 00:10:37;;;;;;;0.10;0.10;;;;;;;5.90;66.31;100740.13;7363248;19;20014;-57
2022/11/19 00:13:04;;;;;;;0.10;0.10;;;;;;;5.86;66.31;100740.13;7359253;19;20021;-58
2022/11/19 00:15:30;;;;;;;0.10;0.10;;;;;;;5.84;66.38;100741.88;7361027;19;22716;-56
2022/11/19 00:17:57;;;;;;;0.00;0.00;;;;;;;5.83;66.17;100735.81;7362208;19;20039;-57
2022/11/19 00:20:22;;;;;;;0.00;0.00;;;;;;;5.82;66.45;100733.22;7362685;19;20038;-57
2022/11/19 00:22:52;;;;;;;0.10;0.10;;;;;;;5.78;66.28;100727.19;7364612;19;20025;-57
2022/11/19 00:25:19;;;;;;;0.00;0.00;;;;;;;5.77;66.54;100735.81;7363506;19;20010;-57
2022/11/19 00:27:44;;;;;;;0.10;0.10;;;;;;;5.75;66.32;100737.56;7363348;19;20011;-57
2022/11/19 00:30:10;;;;;;;0.10;0.10;;;;;;;5.73;65.98;100734.97;7363150;19;20018;-56
2022/11/19 00:32:36;;;;;;;0.10;0.10;;;;;;;5.71;66.12;100741.03;7363777;19;20094;-57
2022/11/19 00:35:01;;;;;;;0.10;0.10;;;;;;;5.69;66.12;100745.34;7360524;19;20466;-57
2022/11/19 00:37:27;;;;;;;0.00;0.00;;;;;;;5.65;66.26;100738.44;7364547;19;20046;-56
2022/11/19 00:39:53;;;;;;;0.10;0.10;;;;;;;5.65;66.34;100751.41;7364690;19;20014;-55
2022/11/19 00:42:19;;;;;;;0.10;0.10;;;;;;;5.62;66.62;100748.81;7361735;19;20010;-57
2022/11/19 00:44:44;;;;;;;0.10;0.10;;;;;;;5.59;66.48;100754.00;7361536;19;20442;-57
2022/11/19 00:47:10;;;;;;;0.05;0.05;;;;;;;5.56;65.90;100746.22;7363740;19;20027;-54
2022/11/19 00:49:35;;;;;;;0.10;0.10;;;;;;;5.55;66.31;100754.88;7363391;19;20035;-57
2022/11/19 00:52:01;;;;;;;0.10;0.10;;;;;;;5.54;66.11;100776.47;7363919;19;20668;-57
2022/11/19 00:54:27;;;;;;;0.10;0.10;;;;;;;5.50;65.92;100778.19;7363750;19;20571;-56
2022/11/19 00:56:52;;;;;;;0.10;0.10;;;;;;;5.49;66.26;100773.03;7362210;19;20598;-57
2022/11/19 00:59:17;;;;;;;0.10;0.10;;;;;;;5.44;66.51;100778.19;7362624;19;20007;-57
2022/11/19 01:01:43;;;;;;;0.00;0.00;;;;;;;5.42;66.68;100785.09;7362078;19;20783;-56
2022/11/19 01:04:08;;;;;;;0.10;0.10;;;;;;;5.38;65.94;100783.38;7356493;19;20021;-57
2022/11/19 01:06:34;;;;;;;0.00;0.00;;;;;;;5.33;66.66;100780.78;7360573;19;20011;-57
2022/11/19 01:09:00;;;;;;;0.00;0.00;;;;;;;5.33;66.65;100780.78;7362614;19;20018;-57
2022/11/19 01:11:28;;;;;;;0.00;0.00;;;;;;;5.33;67.11;100777.34;7367436;19;20748;-57
2022/11/19 01:13:54;;;;;;;0.10;0.10;;;;;;;5.30;66.88;100785.97;7369474;19;20031;-57
2022/11/19 01:16:21;;;;;;;0.10;0.10;;;;;;;5.31;66.66;100781.63;7368515;19;20014;-56
2022/11/19 01:18:48;;;;;;;0.10;0.10;;;;;;;5.29;67.32;100784.25;7369285;19;20014;-57
2022/11/19 01:21:14;;;;;;;0.10;0.10;;;;;;;5.27;66.83;100783.38;7367398;19;20010;-57
2022/11/19 01:23:41;;;;;;;0.10;0.10;;;;;;;5.27;66.82;100779.91;7367453;19;20009;-57
2022/11/19 01:26:08;;;;;;;0.10;0.10;;;;;;;5.24;67.30;100775.59;7366778;19;20490;-56
2022/11/19 01:28:34;;;;;;;0.00;0.00;;;;;;;5.12;66.96;100760.06;7366108;19;20006;-57
2022/11/19 01:31:09;;;;;;;0.10;0.10;;;;;;;5.22;66.73;100777.34;7365554;19;20013;-57
2022/11/19 01:33:35;;;;;;;0.10;0.10;;;;;;;5.18;67.45;100785.97;7367621;19;20017;-57
2022/11/19 01:36:04;;;;;;;0.03;0.03;;;;;;;5.16;67.18;100773.00;7367857;19;20549;-57
2022/11/19 01:38:30;;;;;;;0.00;0.00;;;;;;;5.15;67.21;100776.47;7367493;19;20014;-57
2022/11/19 01:40:57;;;;;;;0.08;0.08;;;;;;;5.13;67.49;100777.34;7369677;19;20018;-57
2022/11/19 01:43:39;;;;;;;0.00;0.00;;;;;;;5.14;67.20;100773.88;7369819;19;20007;-57
2022/11/19 01:46:05;;;;;;;0.10;0.10;;;;;;;5.12;67.73;100783.34;7367940;19;20020;-57
2022/11/19 01:48:34;;;;;;;0.10;0.10;;;;;;;5.10;67.16;100792.84;7367656;19;20027;-57
2022/11/19 01:51:32;;;;;;;0.00;0.00;;;;;;;5.09;67.18;100785.94;7368786;19;20013;-57
2022/11/19 01:54:18;;;;;;;0.10;0.10;;;;;;;5.07;67.13;100779.91;7265088;19;2004636;-55
2022/11/19 01:56:43;;;;;;;0.00;0.00;;;;;;;5.03;67.74;100776.47;7362733;19;20043;-57
2022/11/19 01:59:14;;;;;;;0.10;0.10;;;;;;;5.02;67.24;100773.84;7363972;19;20014;-58
2022/11/19 02:01:41;;;;;;;0.10;0.10;;;;;;;5.00;67.29;100767.81;7361186;19;20014;-57
2022/11/19 02:04:07;;;;;;;0.10;0.10;;;;;;;4.97;67.17;100779.03;7367813;19;20026;-55
2022/11/19 02:06:33;;;;;;;0.00;0.00;;;;;;;4.95;66.91;100791.09;7368153;19;21483;-57
2022/11/19 02:08:59;;;;;;;0.10;0.10;;;;;;;4.92;67.42;100789.38;7367962;19;20011;-57
2022/11/19 02:11:24;;;;;;;0.00;0.00;;;;;;;4.89;67.07;100810.06;7367069;19;20011;-57
2022/11/19 02:14:17;;;;;;;0.10;0.10;;;;;;;4.89;66.98;100822.16;7367938;19;20023;-56
2022/11/19 02:16:59;;;;;;;0.00;0.00;;;;;;;4.86;67.01;100809.19;7264122;19;2004381;-56
2022/11/19 02:19:30;;;;;;;0.00;0.00;;;;;;;4.82;67.14;100813.50;7373266;19;20015;-57
2022/11/19 02:22:05;;;;;;;0.00;0.00;;;;;;;4.80;66.73;100814.34;7366908;19;20014;-56
2022/11/19 02:24:49;;;;;;;0.00;0.00;;;;;;;4.78;66.79;100811.78;7366733;19;20014;-57
2022/11/19 02:27:25;;;;;;;0.10;0.10;;;;;;;4.75;67.85;100806.56;7366846;19;20102;-57
2022/11/19 02:30:16;;;;;;;0.10;0.10;;;;;;;4.73;66.91;100797.97;7366275;19;20014;-58
2022/11/19 02:32:52;;;;;;;0.00;0.00;;;;;;;4.71;67.86;100794.50;7367586;19;20026;-57
2022/11/19 02:35:24;;;;;;;0.10;0.10;;;;;;;4.69;67.96;100791.03;7365989;19;20022;-57
2022/11/19 02:37:59;;;;;;;0.00;0.00;;;;;;;4.68;68.02;100807.44;7366158;19;20025;-57
2022/11/19 02:40:33;;;;;;;0.10;0.10;;;;;;;4.69;68.47;100809.16;7363902;19;20014;-57
2022/11/19 02:43:20;;;;;;;0.10;0.10;;;;;;;4.70;68.15;100818.63;7363315;19;20019;-58
2022/11/19 02:46:02;;;;;;;0.00;0.00;;;;;;;4.69;67.75;100816.91;7364628;19;20006;-57
2022/11/19 02:48:36;;;;;;;0.00;0.00;;;;;;;4.69;68.33;100814.31;7366097;19;20010;-57
2022/11/19 02:51:03;;;;;;;0.00;0.00;;;;;;;4.69;68.40;100811.75;7362689;19;20006;-57
2022/11/19 02:53:30;;;;;;;0.00;0.00;;;;;;;4.67;68.12;100803.13;7365865;19;20077;-55
2022/11/19 02:56:10;;;;;;;0.10;0.10;;;;;;;4.68;68.21;100799.66;7365349;19;20011;-57
2022/11/19 03:04:29;;;;;;;0.10;0.10;;;;;;;4.67;68.99;100819.50;7261915;19;2004463;-58
2022/11/19 03:07:01;;;;;;;0.00;0.00;;;;;;;4.67;68.65;100819.50;7358970;19;20010;-56
2022/11/19 03:09:29;;;;;;;0.10;0.10;;;;;;;4.67;68.41;100816.91;7361900;19;20018;-56
2022/11/19 03:12:06;;;;;;;0.10;0.10;;;;;;;4.66;68.38;100816.88;7363167;19;20027;-57
2022/11/19 03:17:59;;;;;;;0.00;0.00;;;;;;;4.66;68.21;100817.78;7261868;19;2004484;-57
2022/11/19 03:20:39;;;;;;;0.10;0.10;;;;;;;4.66;68.80;100816.88;7363758;19;20009;-57
2022/11/19 03:23:22;;;;;;;0.00;0.00;;;;;;;4.64;68.46;100813.44;7358945;19;20011;-57
2022/11/19 03:25:56;;;;;;;0.00;0.00;;;;;;;4.65;68.29;100817.75;7364163;19;20022;-57
2022/11/19 03:28:29;;;;;;;0.10;0.10;;;;;;;4.62;68.77;100812.59;7364580;19;20006;-57
2022/11/19 03:30:57;;;;;;;0.10;0.10;;;;;;;4.51;68.69;100790.97;7364333;19;20017;-57
2022/11/19 03:33:28;;;;;;;0.05;0.05;;;;;;;4.50;68.80;100790.13;7360585;19;20024;-58
2022/11/19 03:35:59;;;;;;;0.10;0.10;;;;;;;4.62;68.49;100810.00;7361871;19;20010;-57
2022/11/19 03:38:35;;;;;;;0.10;0.10;;;;;;;4.61;68.53;100816.91;7363882;19;20471;-57
2022/11/19 03:41:04;;;;;;;0.00;0.00;;;;;;;4.45;69.20;100791.81;7362985;19;20010;-57
2022/11/19 03:43:37;;;;;;;0.00;0.00;;;;;;;4.60;68.73;100819.47;7362715;19;20013;-58
2022/11/19 03:46:06;;;;;;;0.10;0.10;;;;;;;4.59;68.77;100816.00;7362977;19;20011;-58
2022/11/19 03:48:35;;;;;;;0.10;0.10;;;;;;;4.49;68.38;100800.47;7361479;19;20037;-56
2022/11/19 03:51:10;;;;;;;0.00;0.00;;;;;;;4.55;68.70;100813.41;7363968;19;20018;-57
2022/11/19 03:53:35;;;;;;;0.10;0.10;;;;;;;4.53;68.96;100817.72;7361295;19;20006;-57
2022/11/19 03:56:04;;;;;;;0.10;0.10;;;;;;;4.55;69.27;100821.16;7364868;19;21458;-56
2022/11/19 03:58:37;;;;;;;0.00;0.00;;;;;;;4.53;68.57;100826.34;7362197;19;20392;-57
2022/11/19 04:01:02;;;;;;;0.10;0.10;;;;;;;4.52;68.87;100824.63;7364953;19;20014;-57
2022/11/19 04:03:28;;;;;;;0.10;0.10;;;;;;;4.52;68.87;100834.97;7360104;19;20010;-57
2022/11/19 04:05:53;;;;;;;0.00;0.00;;;;;;;4.43;69.00;100830.59;7352331;19;20020;-57
2022/11/19 04:08:18;;;;;;;0.00;0.00;;;;;;;4.36;68.92;100823.69;7361765;19;20019;-56
2022/11/19 04:10:44;;;;;;;0.00;0.00;;;;;;;4.50;69.04;100846.16;7360897;19;20489;-58
2022/11/19 04:13:09;;;;;;;0.00;0.00;;;;;;;4.40;68.66;100820.25;7363008;19;20022;-58
2022/11/19 04:15:35;;;;;;;0.00;0.00;;;;;;;4.46;69.21;100832.38;7364284;19;20006;-57
2022/11/19 04:18:01;;;;;;;0.00;0.00;;;;;;;4.45;69.32;100828.03;7364001;19;20018;-57
2022/11/19 04:20:26;;;;;;;0.03;0.03;;;;;;;4.45;69.16;100828.03;7355487;19;20021;-58
2022/11/19 04:22:52;;;;;;;0.00;0.00;;;;;;;4.43;69.04;100828.03;7362511;19;20002;-58
2022/11/19 04:25:17;;;;;;;0.00;0.00;;;;;;;4.42;68.63;100826.31;7361658;19;20363;-57
2022/11/19 04:27:45;;;;;;;0.10;0.10;;;;;;;4.37;68.84;100815.06;7362420;19;20014;-57
2022/11/19 04:30:11;;;;;;;0.00;0.00;;;;;;;4.40;69.30;100830.59;7363667;19;20010;-58
2022/11/19 04:32:37;;;;;;;0.10;0.10;;;;;;;4.39;69.20;100833.16;7364231;19;20812;-57
2022/11/19 04:35:03;;;;;;;0.03;0.03;;;;;;;4.22;69.26;100802.09;7362581;19;20049;-57
2022/11/19 04:37:28;;;;;;;0.10;0.10;;;;;;;4.34;68.94;100827.97;7363737;19;20110;-58
2022/11/19 04:39:53;;;;;;;0.08;0.08;;;;;;;4.32;69.03;100826.25;7362121;19;20014;-58
2022/11/19 04:42:19;;;;;;;0.10;0.10;;;;;;;4.32;69.19;100827.13;7364739;19;20021;-57
2022/11/19 04:44:44;;;;;;;0.00;0.00;;;;;;;4.31;68.89;100835.75;7365757;19;20375;-58
2022/11/19 04:47:09;;;;;;;0.00;0.00;;;;;;;4.30;69.52;100828.81;7369181;19;20014;-58
2022/11/19 04:49:35;;;;;;;0.00;0.00;;;;;;;4.22;69.43;100809.84;7367057;19;20014;-58
2022/11/19 04:52:00;;;;;;;0.00;0.00;;;;;;;4.26;69.37;100824.50;7369641;19;20022;-57
2022/11/19 04:54:26;;;;;;;0.10;0.10;;;;;;;4.25;69.38;100820.16;7370260;19;20472;-57
2022/11/19 04:56:51;;;;;;;0.00;0.00;;;;;;;4.26;69.76;100821.94;7370366;19;20034;-58
2022/11/19 04:59:17;;;;;;;0.00;0.00;;;;;;;4.25;69.39;100820.16;7368939;19;20007;-57
2022/11/19 05:01:42;;;;;;;0.10;0.10;;;;;;;4.24;69.22;100828.78;7369157;19;20030;-57
2022/11/19 05:04:08;;;;;;;0.00;0.00;;;;;;;4.23;69.35;100834.81;7368117;19;20010;-57
2022/11/19 05:06:34;;;;;;;0.00;0.00;;;;;;;4.22;68.95;100835.69;7366979;19;20011;-58
2022/11/19 05:08:59;;;;;;;0.10;0.10;;;;;;;4.10;69.21;100820.94;7368347;19;20021;-59
2022/11/19 05:11:25;;;;;;;0.10;0.10;;;;;;;4.20;69.38;100837.38;7370145;19;20017;-58
2022/11/19 05:13:50;;;;;;;0.00;0.00;;;;;;;4.20;69.14;100831.34;7366505;19;20014;-57
2022/11/19 05:16:16;;;;;;;0.10;0.10;;;;;;;4.18;69.59;100828.75;7367638;19;20554;-58
2022/11/19 05:18:41;;;;;;;0.10;0.10;;;;;;;4.17;69.13;100829.63;7366727;19;20006;-57
2022/11/19 05:21:06;;;;;;;0.10;0.10;;;;;;;4.17;69.60;100827.03;7368268;19;20022;-58
2022/11/19 05:23:32;;;;;;;0.10;0.10;;;;;;;4.16;69.75;100830.50;7369082;19;20031;-56
2022/11/19 05:25:57;;;;;;;0.10;0.10;;;;;;;4.15;69.74;100834.75;7368763;19;20504;-58
2022/11/19 05:28:23;;;;;;;0.10;0.10;;;;;;;4.16;69.46;100835.66;7369511;19;20074;-58
2022/11/19 05:30:52;;;;;;;0.00;0.00;;;;;;;4.15;69.71;100833.91;7366831;19;20021;-58
2022/11/19 05:33:18;;;;;;;0.10;0.10;;;;;;;4.14;70.03;100838.22;7368529;19;20015;-58
2022/11/19 05:35:43;;;;;;;0.10;0.10;;;;;;;4.14;69.73;100843.38;7366625;19;20014;-57
2022/11/19 05:38:08;;;;;;;0.10;0.10;;;;;;;4.00;69.77;100821.75;7367508;19;20029;-58
2022/11/19 05:40:34;;;;;;;0.00;0.00;;;;;;;4.13;70.16;100845.97;7367620;19;20017;-58
2022/11/19 05:43:04;;;;;;;0.10;0.10;;;;;;;4.14;69.78;100839.94;7369233;19;20010;-58
2022/11/19 05:45:29;;;;;;;0.00;0.00;;;;;;;4.13;70.20;100851.13;7366005;19;20014;-58
2022/11/19 05:47:55;;;;;;;0.10;0.10;;;;;;;4.13;69.79;100856.31;7369654;19;20661;-58
2022/11/19 05:50:20;;;;;;;0.00;0.00;;;;;;;4.11;69.66;100847.69;7367494;19;20564;-56
2022/11/19 05:52:46;;;;;;;0.10;0.10;;;;;;;4.10;69.88;100851.97;7367396;19;20014;-58
2022/11/19 05:55:11;;;;;;;0.10;0.10;;;;;;;4.10;69.91;100856.28;7366618;19;20034;-59
2022/11/19 05:57:36;;;;;;;0.03;0.03;;;;;;;4.10;70.08;100848.53;7369553;19;20010;-58
2022/11/19 06:00:04;;;;;;;0.00;0.00;;;;;;;4.10;70.10;100846.78;7364253;19;20034;-57
2022/11/19 06:02:29;;;;;;;0.03;0.03;;;;;;;4.09;69.74;100845.06;7366064;19;20011;-58
2022/11/19 06:04:54;;;;;;;0.00;0.00;;;;;;;4.10;70.02;100853.69;7366088;19;20352;-57
2022/11/19 06:07:20;;;;;;;0.10;0.10;;;;;;;4.10;70.20;100845.94;7368665;19;20007;-58
2022/11/19 06:09:45;;;;;;;0.03;0.03;;;;;;;4.10;69.96;100840.75;7366754;19;20939;-57
2022/11/19 06:12:11;;;;;;;0.10;0.10;;;;;;;4.09;70.18;100828.72;7368022;19;20037;-57
2022/11/19 06:14:36;;;;;;;0.10;0.10;;;;;;;4.08;69.81;100821.81;7367769;19;20126;-56
2022/11/19 06:17:02;;;;;;;0.10;0.10;;;;;;;4.08;69.90;100826.97;7368688;19;20021;-58
2022/11/19 06:19:27;;;;;;;0.00;0.00;;;;;;;4.07;70.01;100827.84;7367915;19;20026;-57
2022/11/19 06:21:53;;;;;;;0.10;0.10;;;;;;;4.08;69.85;100833.00;7369666;19;20549;-58
2022/11/19 06:24:19;;;;;;;0.10;0.10;;;;;;;4.08;69.84;100830.44;7366021;19;20046;-57
2022/11/19 06:26:45;;;;;;;0.10;0.10;;;;;;;4.07;70.20;100830.44;7367465;19;20358;-58
2022/11/19 06:29:13;;;;;;;0.10;0.10;;;;;;;4.06;69.77;100828.72;7367175;19;20011;-58
2022/11/19 06:31:38;;;;;;;;;;;;;;;4.09;69.28;100831.28;7369990;19;20018;-58
2022/11/19 06:34:03;;;;;;;0.00;0.00;;;;;;;4.05;70.04;100825.22;7366171;19;20472;-58
2022/11/19 06:36:29;;;;;;;0.05;0.05;;;;;;;4.04;70.17;100830.41;7366088;19;20362;-58
2022/11/19 06:38:54;;;;;;;0.03;0.03;;;;;;;3.90;70.25;100820.88;7366052;19;20006;-58
2022/11/19 06:41:20;;;;;;;0.10;0.10;;;;;;;3.97;70.44;100833.81;7367805;19;20034;-58
2022/11/19 06:43:45;;;;;;;0.10;0.10;;;;;;;3.99;70.41;100829.50;7367037;19;20014;-58
2022/11/19 06:46:12;;;;;;;0.10;0.10;;;;;;;3.98;70.74;100831.22;7367333;19;20632;-59
2022/11/19 06:48:38;;;;;;;0.10;0.10;;;;;;;3.95;70.77;100825.16;7366604;19;20006;-58
2022/11/19 06:51:04;;;;;;;0.10;0.10;;;;;;;3.94;70.47;100820.88;7367592;19;20022;-57
2022/11/19 06:53:30;;;;;;;0.10;0.10;;;;;;;3.93;70.41;100822.59;7360329;19;20025;-58
2022/11/19 06:55:57;;;;;;;0.10;0.10;;;;;;;3.92;70.52;100812.25;7367694;19;20006;-58
2022/11/19 06:58:22;;;;;;;0.00;0.00;;;;;;;3.90;70.86;100807.94;7359072;19;20818;-57
2022/11/19 07:00:48;;;;;;;0.03;0.03;;;;;;;3.88;70.44;100804.47;7367111;19;20015;-58
2022/11/19 07:03:14;;;;;;;0.10;0.10;;;;;;;3.87;70.74;100807.06;7363741;19;20048;-57
2022/11/19 07:05:40;;;;;;;0.00;0.00;;;;;;;3.85;70.50;100808.75;7362318;19;20470;-58
2022/11/19 07:08:05;;;;;;;0.05;0.05;;;;;;;3.83;70.70;100803.56;7363996;19;20021;-57
2022/11/19 07:10:32;;;;;;;0.10;0.10;;;;;;;3.82;71.01;100804.44;7366916;19;20014;-58
2022/11/19 07:12:58;;;;;;;0.10;0.10;;;;;;;3.80;70.94;100802.69;7363606;19;20018;-58
2022/11/19 07:15:23;;;;;;;0.10;0.10;;;;;;;3.79;71.00;100813.88;7364885;19;20079;-58
2022/11/19 07:17:49;;;;;;;0.08;0.08;;;;;;;3.77;70.89;100811.28;7362765;19;20002;-57
2022/11/19 07:20:15;;;;;;;0.10;0.10;;;;;;;3.72;70.88;100805.22;7363398;19;20018;-58
2022/11/19 07:22:41;;;;;;;0.10;0.10;;;;;;;3.72;70.59;100812.97;7366086;19;20006;-58
2022/11/19 07:25:08;;;;;;;0.10;0.10;;;;;;;3.68;71.06;100806.06;7364132;19;20010;-57
2022/11/19 07:27:33;;;;;;;0.00;0.00;;;;;;;3.69;70.59;100820.69;7364061;19;20010;-58
2022/11/19 07:29:59;;;;;;;0.00;0.00;;;;;;;3.65;71.08;100811.22;7365676;19;22194;-58
2022/11/19 07:32:25;;;;;;;0.05;0.05;;;;;;;3.67;70.79;100812.09;7364748;19;20014;-58
2022/11/19 07:34:50;;;;;;;0.10;0.10;;;;;;;3.66;70.70;100817.25;7364539;19;20093;-58
2022/11/19 07:37:16;;;;;;;0.10;0.10;;;;;;;3.64;70.70;100812.03;7361569;19;20006;-58
2022/11/19 07:39:41;;;;;;;0.10;0.10;;;;;;;3.64;71.18;100819.78;7362617;19;20010;-58
2022/11/19 07:44:51;;;;;;;0.10;0.10;;;;;;;3.61;70.95;100800.00;7361074;19;20018;-57
2022/11/19 07:47:16;;;;;;;0.10;0.10;;;;;;;3.62;70.92;100806.03;7365614;19;21818;-57
2022/11/19 07:49:42;;;;;;;0.10;0.10;;;;;;;3.62;70.85;100795.69;7365756;19;20014;-58
2022/11/19 07:52:07;;;;;;;0.00;0.00;;;;;;;3.61;70.97;100799.13;7364145;19;20013;-57
2022/11/19 07:54:33;;;;;;;0.05;0.05;;;;;;;3.62;70.65;100795.69;7364060;19;20725;-59
2022/11/19 07:56:58;;;;;;;0.10;0.10;;;;;;;3.62;70.82;100786.22;7364095;19;20010;-57
2022/11/19 07:59:25;;;;;;;0.10;0.10;;;;;;;3.64;70.63;100788.81;7365345;19;20047;-58
2022/11/19 08:01:50;;;;;;;0.00;0.00;;;;;;;3.64;70.91;100778.47;7364871;19;20011;-59
2022/11/19 08:04:16;;;;;;;0.10;0.10;;;;;;;3.65;71.25;100775.06;7362758;19;20052;-58
2022/11/19 08:06:41;;;;;;;0.00;0.00;;;;;;;3.67;70.88;100773.34;7363468;19;20462;-57
2022/11/19 08:09:07;;;;;;;0.03;0.03;;;;;;;3.68;71.01;100769.91;7363074;19;20013;-57
2022/11/19 08:11:32;;;;;;;0.00;0.00;;;;;;;3.70;71.09;100775.97;7363687;19;20022;-58
2022/11/19 08:14:01;;;;;;;0.10;0.10;;;;;;;3.71;71.41;100769.06;7363052;19;20595;-58
2022/11/19 08:19:14;;;;;;;0.00;0.00;;;;;;;3.77;71.02;100764.81;7357822;19;20576;-58
2022/11/19 08:21:43;;;;;;;0.10;0.10;;;;;;;3.79;70.86;100768.25;7361213;19;20092;-58
2022/11/19 08:24:09;;;;;;;0.00;0.00;;;;;;;3.80;71.07;100770.00;7363573;19;20442;-58
2022/11/19 08:26:35;;;;;;;0.10;0.10;;;;;;;3.83;71.09;100764.84;7362936;19;20013;-57
2022/11/19 08:29:00;;;;;;;0.10;0.10;;;;;;;3.86;71.17;100764.84;7360739;19;20026;-58
2022/11/19 08:31:26;;;;;;;0.08;0.08;;;;;;;3.89;71.07;100764.84;7363969;19;20007;-58
2022/11/19 08:33:51;;;;;;;0.10;0.10;;;;;;;3.94;70.99;100771.78;7364799;19;20002;-57
2022/11/19 08:36:17;;;;;;;0.10;0.10;;;;;;;3.96;70.78;100764.91;7361186;19;20084;-58
2022/11/19 08:38:43;;;;;;;0.10;0.10;;;;;;;4.01;70.77;100765.81;7365493;19;20383;-58
2022/11/19 08:43:52;;;;;;;0.10;0.10;;;;;;;4.08;71.15;100759.78;7361952;19;20021;-58
2022/11/19 08:46:17;;;;;;;0.10;0.10;;;;;;;4.09;71.09;100759.78;7360130;19;22618;-58
2022/11/19 08:48:43;;;;;;;0.00;0.00;;;;;;;4.15;71.17;100756.38;7362364;19;20042;-58
2022/11/19 08:51:09;;;;;;;0.00;0.00;;;;;;;4.18;71.16;100758.13;7360737;19;20447;-58
2022/11/19 08:53:35;;;;;;;0.00;0.00;;;;;;;4.20;70.77;100754.66;7362164;19;20025;-57
2022/11/19 08:56:00;;;;;;;0.10;0.10;;;;;;;4.25;70.73;100763.31;7362541;19;21644;-58
2022/11/19 08:58:25;;;;;;;0.10;0.10;;;;;;;4.28;71.16;100762.47;7360066;19;20481;-58
2022/11/19 09:00:51;;;;;;;0.10;0.10;;;;;;;4.33;71.13;100771.97;7361605;19;20007;-57
2022/11/19 09:03:16;;;;;;;0.10;0.10;;;;;;;4.37;71.09;100768.53;7359319;19;20013;-57
2022/11/19 09:05:42;;;;;;;0.10;0.10;;;;;;;4.40;70.76;100763.38;7361440;19;20014;-58
2022/11/19 09:08:07;;;;;;;0.03;0.03;;;;;;;4.43;70.87;100758.22;7124336;19;21119;-56
2022/11/19 09:10:33;;;;;;;0.10;0.10;;;;;;;4.50;71.13;100759.09;6987324;19;23502;-58
2022/11/19 09:13:01;;;;;;;0.10;0.10;;;;;;;4.40;70.69;100727.16;6733904;19;20828;-57
2022/11/19 09:15:26;;;;;;;0.10;0.10;;;;;;;4.74;70.81;100775.53;6883341;19;20010;-58
2022/11/19 09:17:52;;;;;;;0.10;0.10;;;;;;;4.86;70.64;100771.25;7363019;19;20103;-58
2022/11/19 09:20:17;;;;;;;0.10;0.10;;;;;;;5.03;70.98;100757.47;7361012;19;20045;-59
2022/11/19 09:22:43;;;;;;;0.03;0.03;;;;;;;5.18;70.58;100749.72;7352693;19;20006;-59
2022/11/19 09:25:08;;;;;;;0.10;0.10;;;;;;;5.35;70.23;100753.16;7359258;19;20108;-59
2022/11/19 09:27:35;;;;;;;0.00;0.00;;;;;;;5.52;70.28;100749.69;7357488;19;20031;-58
2022/11/19 09:30:00;;;;;;;0.10;0.10;;;;;;;5.67;69.80;100742.75;7362024;19;20027;-58
2022/11/19 09:32:27;;;;;;;0.00;0.00;;;;;;;5.85;70.27;100746.19;7368233;19;21417;-58
2022/11/19 09:34:52;;;;;;;0.03;0.03;;;;;;;6.02;69.99;100736.66;7366719;19;20015;-58
2022/11/19 09:37:18;;;;;;;0.00;0.00;;;;;;;6.20;69.81;100728.81;7368521;19;21513;-58
2022/11/19 09:39:43;;;;;;;0.10;0.10;;;;;;;6.42;69.32;100723.50;7367608;19;20027;-58
2022/11/19 09:42:35;;;;;;;0.10;0.10;;;;;;;6.72;69.71;100725.06;7368879;19;20011;-57
2022/11/19 09:45:24;;;;;;;0.00;0.00;;;;;;;7.00;68.69;100721.41;7264279;19;2004333;-57
2022/11/19 09:48:08;;;;;;;0.10;0.10;;;;;;;7.39;69.18;100713.28;7363476;19;20038;-59
2022/11/19 09:50:45;;;;;;;0.10;0.10;;;;;;;7.60;68.83;100712.19;7367920;19;20015;-58
2022/11/19 09:53:18;;;;;;;0.00;0.00;;;;;;;7.79;68.43;100713.72;7367028;19;20010;-58
2022/11/19 09:55:46;;;;;;;0.00;0.00;;;;;;;7.91;68.35;100712.75;7366637;19;20011;-58
2022/11/19 09:58:31;;;;;;;0.00;0.00;;;;;;;8.01;68.58;100704.81;7364631;19;20035;-57
2022/11/19 10:00:58;;;;;;;0.00;0.00;;;;;;;8.01;68.07;100702.22;7367187;19;20006;-58
2022/11/19 10:03:25;;;;;;;0.00;0.00;;;;;;;8.09;67.78;100696.03;7362291;19;20022;-58
2022/11/19 10:05:56;;;;;;;0.10;0.10;;;;;;;8.20;68.24;100688.94;7363016;19;20033;-57
2022/11/19 10:08:24;;;;;;;0.10;0.10;;;;;;;8.39;68.02;100682.66;7368646;19;20367;-56
2022/11/19 10:11:12;;;;;;;0.10;0.10;;;;;;;8.76;68.80;100679.50;7368261;19;20684;-58
2022/11/19 10:13:46;;;;;;;0.00;0.00;;;;;;;9.05;68.78;100674.69;7365962;19;20867;-59
2022/11/19 10:16:26;;;;;;;0.00;0.00;;;;;;;9.41;68.67;100676.69;7366253;19;20015;-57
2022/11/19 10:19:07;;;;;;;0.05;0.05;;;;;;;9.61;66.72;100683.25;7364371;19;20022;-58
2022/11/19 10:21:51;;;;;;;0.00;0.00;;;;;;;9.79;66.00;100682.03;7368699;19;20749;-56
2022/11/19 10:24:37;;;;;;;0.00;0.00;;;;;;;9.94;66.10;100690.44;7365896;19;20014;-57
2022/11/19 10:27:16;;;;;;;0.00;0.00;;;;;;;9.88;65.26;100680.97;7367336;19;20016;-58
2022/11/19 10:29:42;;;;;;;0.10;0.10;;;;;;;9.83;64.50;100682.81;7365038;19;20046;-58
2022/11/19 10:32:21;;;;;;;0.00;0.00;;;;;;;9.80;65.26;100672.47;7366669;19;20033;-57
2022/11/19 10:34:50;;;;;;;0.00;0.00;;;;;;;9.70;64.52;100677.00;7367269;19;20010;-59
2022/11/19 10:37:19;;;;;;;0.10;0.10;;;;;;;9.61;64.80;100667.59;7367925;19;20044;-58
2022/11/19 10:39:56;;;;;;;0.00;0.00;;;;;;;9.44;65.03;100643.59;7364032;19;20099;-58
2022/11/19 10:42:29;;;;;;;0.00;0.00;;;;;;;9.49;65.16;100656.56;7365693;19;20604;-59
2022/11/19 10:45:00;;;;;;;0.00;0.00;;;;;;;9.43;65.32;100662.75;7365672;19;20011;-59
2022/11/19 10:47:48;;;;;;;0.00;0.00;;;;;;;9.36;65.05;100666.34;7366582;19;20743;-57
2022/11/19 10:50:17;;;;;;;;;;;;;;;9.37;66.61;100665.44;7368325;19;20022;-58
2022/11/19 10:52:49;;;;;;;0.03;0.03;;;;;;;9.25;65.28;100652.66;7366661;19;19925;-58
2022/11/19 10:55:26;;;;;;;0.03;0.03;;;;;;;9.28;65.38;100652.59;7365817;19;20944;-58
2022/11/19 10:58:05;;;;;;;0.00;0.00;;;;;;;9.25;65.54;100652.66;7366688;19;20010;-58
2022/11/19 11:00:31;;;;;;;0.00;0.00;;;;;;;9.09;64.93;100620.81;7358792;19;20070;-58
2022/11/19 11:03:01;;;;;;;0.00;0.00;;;;;;;9.18;65.24;100630.22;7363544;19;20530;-59
2022/11/19 11:05:28;;;;;;;0.00;0.00;;;;;;;9.01;64.65;100605.28;7361755;19;20022;-58
2022/11/19 11:07:59;;;;;;;0.10;0.10;;;;;;;9.15;65.40;100614.63;7363844;19;20019;-57
2022/11/19 11:10:29;;;;;;;0.10;0.10;;;;;;;9.14;64.75;100607.69;7363289;19;20835;-58
2022/11/19 11:15:49;;;;;;;0.00;0.00;;;;;;;9.02;64.13;100578.38;7363057;19;20472;-58
2022/11/19 11:18:16;;;;;;;0.00;0.00;;;;;;;9.09;64.83;100585.19;7362227;19;20666;-58
2022/11/19 11:20:48;;;;;;;0.10;0.10;;;;;;;9.13;64.92;100577.34;7360511;19;20477;-59
2022/11/19 11:23:32;;;;;;;0.10;0.10;;;;;;;9.10;64.68;100571.28;7361481;19;20117;-58
2022/11/19 11:26:16;;;;;;;0.00;0.00;;;;;;;9.17;65.20;100563.34;7360142;19;20021;-59
2022/11/19 11:29:19;;;;;;;0.10;0.10;;;;;;;9.19;64.74;100562.44;7358817;19;20053;-58
2022/11/19 11:31:46;;;;;;;0.00;0.00;;;;;;;9.10;64.24;100545.22;7256227;19;2004724;-59
2022/11/19 11:34:32;;;;;;;0.00;0.00;;;;;;;9.24;64.85;100546.72;7358753;19;19998;-58
2022/11/19 11:36:59;;;;;;;0.10;0.10;;;;;;;9.22;64.35;100538.91;7360435;19;20033;-58
2022/11/19 11:39:35;;;;;;;0.00;0.00;;;;;;;9.26;64.65;100537.09;7360181;19;20027;-58
2022/11/19 11:42:01;;;;;;;0.00;0.00;;;;;;;9.23;64.20;100534.59;7358732;19;20505;-57
2022/11/19 11:44:31;;;;;;;0.05;0.05;;;;;;;9.31;64.79;100535.28;7356726;19;20062;-57
2022/11/19 11:47:00;;;;;;;0.10;0.10;;;;;;;9.33;64.19;100529.16;7359229;19;20367;-58
2022/11/19 11:49:31;;;;;;;0.00;0.00;;;;;;;9.35;63.95;100529.13;7358157;19;20114;-58
2022/11/19 11:52:03;;;;;;;0.00;0.00;;;;;;;9.37;63.83;100522.09;7360510;19;20010;-58
2022/11/19 11:54:28;;;;;;;0.00;0.00;;;;;;;9.40;64.58;100514.25;7360436;19;20030;-58
2022/11/19 11:57:12;;;;;;;0.00;0.00;;;;;;;9.46;64.50;100511.50;7362640;19;22765;-59
2022/11/19 11:59:37;;;;;;;0.10;0.10;;;;;;;9.46;63.43;100503.69;7360885;19;20015;-56
2022/11/19 12:02:05;;;;;;;0.00;0.00;;;;;;;9.51;63.94;100503.59;7358909;19;20021;-58